チタ の空港の天気 - METARとTAF

チタ・カダラ空港 ( UIAA / HTA ) - ロシア チタ
飛行場実況気象(Metar)
観測時間10/20 03:00 YAKT (10/19 18:00 UTC)
風向・風速北西 1m/s
視程10km以上
天気現象
なし
気温-6℃
湿度79%
気圧1017hPa
METARUIAA 191800Z AUTO 31001MPS 9999 NCD M06/M09 Q1017 RMK QFE704/0939
過去の天気等 Google飛行場航空写真 Wunderground天気予報

過去48時間のMETAR

飛行場予報(TAF)
発表時間: 10/20 02:00 YAKT (10/19 17:00 UTC)
予報対象時間: 20日3時 YAKT ~ 21日3時 YAKT
風向・風速北北西 3m/s
視程10km以上
全天の4割程度の積乱雲 雲底高度 1220m
TAF UIAA 191700Z 1918/2018 33003MPS 9999 SCT040CB